createdAt,value
2022-08-01T00:00:03.196Z,2.70
2022-08-01T00:02:29.887Z,2.70
2022-08-01T00:04:56.554Z,2.65
2022-08-01T00:07:23.231Z,2.42
2022-08-01T00:09:49.945Z,2.45
2022-08-01T00:12:16.497Z,2.85
2022-08-01T00:14:43.112Z,2.47
2022-08-01T00:17:09.725Z,2.95
2022-08-01T00:19:36.420Z,2.92
2022-08-01T00:22:03.171Z,2.88
2022-08-01T00:24:29.910Z,2.75
2022-08-01T00:26:56.510Z,2.47
2022-08-01T00:30:10.279Z,3.22
2022-08-01T00:32:09.912Z,2.75
2022-08-01T00:34:36.603Z,2.70
2022-08-01T00:37:03.390Z,3.00
2022-08-01T00:39:30.160Z,2.38
2022-08-01T00:41:59.386Z,2.97
2022-08-01T00:44:27.094Z,2.38
2022-08-01T00:46:53.979Z,2.22
2022-08-01T00:49:20.718Z,2.78
2022-08-01T00:51:47.410Z,2.60
2022-08-01T00:54:16.744Z,2.92
2022-08-01T00:56:43.711Z,2.53
2022-08-01T00:59:10.461Z,2.90
2022-08-01T01:01:39.390Z,2.65
2022-08-01T01:04:08.664Z,2.70
2022-08-01T01:12:15.926Z,3.00
2022-08-01T01:14:52.079Z,2.45
2022-08-01T01:17:31.200Z,2.42
2022-08-01T01:20:08.533Z,2.92
2022-08-01T01:23:03.380Z,2.70
2022-08-01T01:26:09.837Z,2.92
2022-08-01T01:28:58.508Z,2.67
2022-08-01T01:31:25.293Z,2.83
2022-08-01T01:33:52.480Z,3.03
2022-08-01T01:36:19.154Z,2.20
2022-08-01T01:38:46.188Z,3.00
2022-08-01T01:41:13.769Z,2.80
2022-08-01T01:43:40.449Z,3.15
2022-08-01T01:46:07.197Z,3.10
2022-08-01T01:48:34.552Z,3.65
2022-08-01T01:51:01.353Z,3.25
2022-08-01T01:53:28.818Z,2.90
2022-08-01T01:55:56.322Z,2.70
2022-08-01T01:58:22.957Z,2.78
2022-08-01T02:00:50.383Z,3.20
2022-08-01T02:03:18.938Z,2.80
2022-08-01T02:05:45.546Z,3.17
2022-08-01T02:08:12.534Z,2.83
2022-08-01T02:10:39.256Z,3.00
2022-08-01T02:13:07.325Z,2.97
2022-08-01T02:15:35.730Z,2.85
2022-08-01T02:18:03.135Z,2.58
2022-08-01T02:20:31.109Z,2.47
2022-08-01T02:23:03.480Z,2.55
2022-08-01T02:25:33.704Z,2.72
2022-08-01T02:28:14.292Z,2.50
2022-08-01T02:30:43.894Z,3.00
2022-08-01T02:33:16.229Z,2.75
2022-08-01T02:36:29.084Z,2.70
2022-08-01T02:38:31.559Z,2.70
2022-08-01T02:40:59.835Z,3.42
2022-08-01T02:43:27.518Z,2.28
2022-08-01T02:45:55.361Z,2.78
2022-08-01T02:48:22.418Z,2.75
2022-08-01T02:50:49.597Z,2.70
2022-08-01T02:53:17.735Z,2.75
2022-08-01T02:55:45.850Z,2.80
2022-08-01T02:58:12.506Z,2.55
2022-08-01T03:00:39.780Z,2.80
2022-08-01T03:03:07.731Z,3.08
2022-08-01T03:05:34.341Z,3.38
2022-08-01T03:08:02.482Z,2.83
2022-08-01T03:10:30.678Z,2.83
2022-08-01T03:12:57.626Z,3.28
2022-08-01T03:15:24.502Z,2.88
2022-08-01T03:17:51.096Z,2.83
2022-08-01T03:20:18.204Z,2.38
2022-08-01T03:22:45.077Z,3.03
2022-08-01T03:25:12.178Z,3.17
2022-08-01T03:27:38.857Z,3.05
2022-08-01T03:30:06.473Z,3.35
2022-08-01T03:32:33.073Z,2.70
2022-08-01T03:34:59.690Z,3.33
2022-08-01T03:37:31.063Z,2.63
2022-08-01T03:40:03.822Z,2.55
2022-08-01T03:42:37.474Z,3.00
2022-08-01T03:45:10.015Z,3.05
2022-08-01T03:47:43.561Z,3.30
2022-08-01T03:50:12.726Z,2.70
2022-08-01T03:52:39.470Z,2.65
2022-08-01T03:55:08.499Z,2.40
2022-08-01T03:57:36.294Z,2.85
2022-08-01T04:00:08.017Z,2.75
2022-08-01T04:02:34.659Z,2.78
2022-08-01T04:05:01.464Z,3.80
2022-08-01T04:07:29.879Z,3.22
2022-08-01T04:09:56.720Z,3.58
2022-08-01T04:12:23.409Z,2.95
2022-08-01T04:14:50.158Z,3.22
2022-08-01T04:17:17.516Z,3.33
2022-08-01T04:19:44.296Z,3.58
2022-08-01T04:22:11.674Z,3.78
2022-08-01T04:24:38.562Z,3.33
2022-08-01T04:27:07.064Z,3.45
2022-08-01T04:29:33.797Z,2.83
2022-08-01T04:32:01.229Z,3.63
2022-08-01T04:34:29.440Z,2.95
2022-08-01T04:36:56.447Z,2.83
2022-08-01T04:39:25.119Z,3.58
2022-08-01T04:41:51.835Z,3.75
2022-08-01T04:44:18.585Z,3.38
2022-08-01T04:46:45.168Z,2.95
2022-08-01T04:49:12.692Z,3.10
2022-08-01T04:51:51.853Z,3.15
2022-08-01T04:54:18.845Z,2.90
2022-08-01T04:56:45.495Z,3.80
2022-08-01T04:59:37.963Z,3.10
2022-08-01T05:02:04.809Z,2.60
2022-08-01T05:04:31.682Z,3.42
2022-08-01T05:06:58.333Z,3.05
2022-08-01T05:09:29.389Z,3.00
2022-08-01T05:14:26.724Z,3.03
2022-08-01T05:16:53.572Z,2.50
2022-08-01T05:19:20.704Z,3.60
2022-08-01T05:21:47.465Z,3.05
2022-08-01T05:24:14.118Z,3.15
2022-08-01T05:26:40.904Z,3.40
2022-08-01T05:29:07.615Z,2.90
2022-08-01T05:31:35.154Z,2.90
2022-08-01T05:34:03.130Z,3.88
2022-08-01T05:36:30.236Z,3.13
2022-08-01T05:38:56.921Z,2.95
2022-08-01T05:41:23.523Z,2.83
2022-08-01T05:43:50.137Z,2.80
2022-08-01T05:46:16.812Z,2.60
2022-08-01T05:48:43.400Z,2.70
2022-08-01T05:51:09.984Z,3.53
2022-08-01T05:53:36.659Z,3.25
2022-08-01T05:56:03.285Z,3.30
2022-08-01T05:58:29.915Z,3.10
2022-08-01T06:00:56.724Z,2.70
2022-08-01T06:03:23.394Z,3.50
2022-08-01T06:05:50.130Z,3.15
2022-08-01T06:08:16.742Z,3.05
2022-08-01T06:10:43.509Z,3.33
2022-08-01T06:13:10.192Z,2.80
2022-08-01T06:15:36.791Z,2.90
2022-08-01T06:18:04.608Z,3.17
2022-08-01T06:20:31.538Z,3.20
2022-08-01T06:22:59.899Z,5.63
2022-08-01T06:25:27.940Z,2.58
2022-08-01T06:27:54.609Z,2.90
2022-08-01T06:30:21.285Z,3.10
2022-08-01T06:32:48.497Z,3.33
2022-08-01T06:35:15.951Z,2.90
2022-08-01T06:37:42.560Z,3.00
2022-08-01T06:40:16.328Z,3.58
2022-08-01T06:42:43.685Z,3.20
2022-08-01T06:45:11.213Z,3.55
2022-08-01T06:47:41.437Z,2.92
2022-08-01T06:50:09.704Z,3.33
2022-08-01T06:52:37.235Z,3.30
2022-08-01T06:55:04.104Z,3.47
2022-08-01T06:57:30.717Z,3.33
2022-08-01T06:59:57.411Z,3.25
2022-08-01T07:02:24.329Z,2.97
2022-08-01T07:04:51.012Z,3.83
2022-08-01T07:07:17.715Z,3.72
2022-08-01T07:09:44.631Z,3.50
2022-08-01T07:12:12.057Z,4.03
2022-08-01T07:14:38.751Z,3.15
2022-08-01T07:17:08.218Z,3.33
2022-08-01T07:19:34.867Z,2.67
2022-08-01T07:22:05.483Z,3.50
2022-08-01T07:24:32.572Z,3.22
2022-08-01T07:27:21.274Z,3.15
2022-08-01T07:29:48.399Z,3.47
2022-08-01T07:32:15.063Z,3.40
2022-08-01T07:34:42.669Z,2.90
2022-08-01T07:37:09.330Z,3.70
2022-08-01T07:39:35.998Z,3.47
2022-08-01T07:42:07.837Z,3.75
2022-08-01T07:44:35.759Z,3.42
2022-08-01T07:47:02.479Z,2.95
2022-08-01T07:49:29.324Z,3.42
2022-08-01T07:52:03.549Z,4.45
2022-08-01T07:54:33.450Z,3.72
2022-08-01T07:57:01.411Z,3.15
2022-08-01T07:59:28.547Z,3.40
2022-08-01T08:01:55.341Z,3.15
2022-08-01T08:04:22.335Z,3.70
2022-08-01T08:06:51.885Z,3.40
2022-08-01T08:09:18.486Z,3.03
2022-08-01T08:11:47.880Z,3.42
2022-08-01T08:14:15.783Z,3.55
2022-08-01T08:16:43.261Z,3.17
2022-08-01T08:19:09.933Z,3.53
2022-08-01T08:21:37.275Z,3.33
2022-08-01T08:24:26.220Z,3.97
2022-08-01T08:26:56.101Z,3.40
2022-08-01T08:29:22.986Z,3.47
2022-08-01T08:31:52.350Z,3.50
2022-08-01T08:34:19.571Z,3.28
2022-08-01T08:36:47.843Z,3.53
2022-08-01T08:39:15.067Z,3.30
2022-08-01T08:41:41.735Z,2.75
2022-08-01T08:44:10.075Z,2.78
2022-08-01T08:46:43.519Z,2.83
2022-08-01T08:49:10.569Z,3.13
2022-08-01T08:51:39.645Z,2.78
2022-08-01T08:54:06.981Z,3.08
2022-08-01T08:56:35.238Z,2.35
2022-08-01T08:59:02.406Z,2.20
2022-08-01T09:01:29.040Z,2.58
2022-08-01T09:03:55.735Z,2.45
2022-08-01T09:06:22.307Z,2.20
2022-08-01T09:08:48.958Z,2.60
2022-08-01T09:11:22.579Z,3.80
2022-08-01T09:17:41.903Z,2.20
2022-08-01T09:20:09.071Z,2.50
2022-08-01T09:22:35.754Z,3.13
2022-08-01T09:25:07.738Z,2.30
2022-08-01T09:27:34.580Z,2.05
2022-08-01T09:30:11.359Z,2.10
2022-08-01T09:32:53.183Z,2.85
2022-08-01T09:35:31.780Z,2.38
2022-08-01T09:38:22.096Z,2.47
2022-08-01T09:40:58.151Z,2.17
2022-08-01T09:43:27.855Z,2.65
2022-08-01T09:45:55.440Z,2.22
2022-08-01T09:48:28.737Z,2.45
2022-08-01T09:51:04.555Z,2.03
2022-08-01T09:53:42.792Z,1.90
2022-08-01T09:56:17.426Z,2.03
2022-08-01T09:59:00.044Z,2.00
2022-08-01T10:01:36.746Z,1.73
2022-08-01T10:04:15.218Z,2.10
2022-08-01T10:06:44.907Z,1.65
2022-08-01T10:09:13.536Z,2.38
2022-08-01T10:11:42.156Z,2.03
2022-08-01T10:14:09.332Z,2.08
2022-08-01T10:16:37.029Z,2.20
2022-08-01T10:19:07.540Z,2.28
2022-08-01T10:21:47.578Z,1.95
2022-08-01T10:24:24.940Z,1.70
2022-08-01T10:26:53.462Z,2.15
2022-08-01T10:29:44.990Z,1.77
2022-08-01T10:32:10.181Z,1.70
2022-08-01T10:34:38.060Z,1.92
2022-08-01T10:37:07.355Z,1.92
2022-08-01T10:39:34.646Z,1.73
2022-08-01T10:42:04.295Z,2.05
2022-08-01T10:44:32.736Z,1.70
2022-08-01T10:47:05.541Z,2.20
2022-08-01T10:49:42.096Z,1.48
2022-08-01T10:52:08.714Z,1.42
2022-08-01T10:54:52.801Z,1.50
2022-08-01T10:57:22.969Z,1.58
2022-08-01T10:59:59.359Z,2.15
2022-08-01T11:05:10.304Z,1.42
2022-08-01T11:07:50.099Z,1.52
2022-08-01T11:10:24.786Z,2.13
2022-08-01T11:12:51.620Z,1.77
2022-08-01T11:15:30.271Z,2.38
2022-08-01T11:18:00.604Z,1.60
2022-08-01T11:20:31.285Z,1.77
2022-08-01T11:23:06.052Z,1.92
2022-08-01T11:28:29.158Z,2.20
2022-08-01T11:36:36.914Z,2.30
2022-08-01T11:41:45.047Z,2.00
2022-08-01T11:49:50.251Z,2.03
2022-08-01T11:52:20.592Z,2.22
2022-08-01T11:54:49.586Z,1.38
2022-08-01T11:57:34.504Z,1.60
2022-08-01T12:00:19.023Z,1.40
2022-08-01T12:02:46.797Z,2.05
2022-08-01T12:05:15.235Z,1.83
2022-08-01T12:07:42.809Z,1.27
2022-08-01T12:10:17.893Z,1.85
2022-08-01T12:12:47.734Z,1.30
2022-08-01T12:15:14.429Z,1.08
2022-08-01T12:17:45.781Z,1.40
2022-08-01T12:20:24.709Z,1.40
2022-08-01T12:22:59.612Z,1.52
2022-08-01T12:25:26.286Z,1.42
2022-08-01T12:27:56.534Z,1.30
2022-08-01T12:30:24.700Z,1.60
2022-08-01T12:32:51.517Z,1.70
2022-08-01T12:35:20.530Z,1.27
2022-08-01T12:37:48.374Z,0.85
2022-08-01T12:40:19.940Z,1.73
2022-08-01T12:42:48.295Z,1.20
2022-08-01T12:45:18.267Z,1.13
2022-08-01T12:47:44.937Z,1.13
2022-08-01T12:50:15.102Z,1.45
2022-08-01T12:52:41.787Z,1.40
2022-08-01T12:55:12.666Z,1.27
2022-08-01T12:57:41.375Z,1.10
2022-08-01T13:00:11.332Z,1.10
2022-08-01T13:02:38.076Z,1.50
2022-08-01T13:05:05.404Z,1.17
2022-08-01T13:07:49.934Z,1.02
2022-08-01T13:10:34.926Z,1.42
2022-08-01T13:13:01.640Z,1.75
2022-08-01T13:15:32.505Z,0.88
2022-08-01T13:18:00.201Z,1.63
2022-08-01T13:20:31.164Z,1.48
2022-08-01T13:23:11.858Z,2.80
2022-08-01T13:25:51.666Z,2.30
2022-08-01T13:28:19.774Z,2.17
2022-08-01T13:31:04.393Z,1.70
2022-08-01T13:33:52.348Z,2.40
2022-08-01T13:36:30.835Z,2.00
2022-08-01T13:39:17.891Z,1.75
2022-08-01T13:41:44.890Z,1.88
2022-08-01T13:44:11.575Z,1.52
2022-08-01T13:46:39.318Z,1.95
2022-08-01T13:49:16.642Z,1.90
2022-08-01T13:51:43.630Z,1.95
2022-08-01T13:54:10.284Z,1.75
2022-08-01T13:56:37.030Z,1.40
2022-08-01T13:59:03.854Z,1.98
2022-08-01T14:01:34.166Z,2.03
2022-08-01T14:04:01.497Z,1.60
2022-08-01T14:06:28.118Z,1.80
2022-08-01T14:08:54.739Z,2.70
2022-08-01T14:11:21.532Z,1.90
2022-08-01T14:13:48.185Z,1.65
2022-08-01T14:16:15.434Z,1.83
2022-08-01T14:18:42.148Z,2.10
2022-08-01T14:21:11.049Z,1.95
2022-08-01T14:23:37.762Z,2.05
2022-08-01T14:26:11.568Z,1.98
2022-08-01T14:28:39.292Z,1.92
2022-08-01T14:31:07.132Z,1.70
2022-08-01T14:33:34.293Z,2.40
2022-08-01T14:36:06.652Z,2.17
2022-08-01T14:38:47.774Z,2.55
2022-08-01T14:41:15.435Z,2.30
2022-08-01T14:43:42.072Z,2.60
2022-08-01T14:46:10.738Z,2.20
2022-08-01T14:48:37.419Z,1.90
2022-08-01T14:51:04.337Z,2.00
2022-08-01T14:53:31.582Z,2.28
2022-08-01T14:56:01.027Z,2.05
2022-08-01T14:58:27.600Z,2.03
2022-08-01T15:00:58.495Z,1.65
2022-08-01T15:03:26.158Z,2.77
2022-08-01T15:05:52.787Z,7.53
2022-08-01T15:08:19.442Z,2.03
2022-08-01T15:10:46.063Z,2.45
2022-08-01T15:13:12.645Z,2.40
2022-08-01T15:15:39.189Z,2.30
2022-08-01T15:18:05.955Z,2.95
2022-08-01T15:20:33.750Z,1.83
2022-08-01T15:23:00.634Z,2.45
2022-08-01T15:25:40.709Z,1.98
2022-08-01T15:28:09.938Z,2.60
2022-08-01T15:30:36.723Z,2.80
2022-08-01T15:33:03.561Z,2.17
2022-08-01T15:35:30.239Z,1.85
2022-08-01T15:37:56.912Z,2.80
2022-08-01T15:40:23.689Z,2.10
2022-08-01T15:42:50.397Z,2.58
2022-08-01T15:45:45.801Z,2.83
2022-08-01T15:48:06.730Z,2.88
2022-08-01T15:50:33.547Z,2.53
2022-08-01T15:53:00.215Z,3.47
2022-08-01T15:55:26.893Z,4.28
2022-08-01T15:57:53.478Z,3.75
2022-08-01T16:00:20.230Z,3.28
2022-08-01T16:02:47.422Z,3.35
2022-08-01T16:05:14.140Z,2.50
2022-08-01T16:07:59.668Z,2.53
2022-08-01T16:10:29.166Z,2.88
2022-08-01T16:12:55.797Z,3.08
2022-08-01T16:15:22.442Z,2.80
2022-08-01T16:17:49.071Z,4.53
2022-08-01T16:20:16.115Z,2.20
2022-08-01T16:22:42.680Z,3.08
2022-08-01T16:25:13.366Z,2.35
2022-08-01T16:27:40.136Z,2.65
2022-08-01T16:30:07.728Z,2.08
2022-08-01T16:32:41.124Z,1.98
2022-08-01T16:35:11.917Z,2.15
2022-08-01T16:37:40.100Z,2.08
2022-08-01T16:40:07.240Z,1.73
2022-08-01T16:42:34.439Z,2.33
2022-08-01T16:45:02.438Z,1.80
2022-08-01T16:47:35.393Z,2.35
2022-08-01T16:50:01.997Z,1.55
2022-08-01T16:52:28.970Z,2.30
2022-08-01T16:54:57.888Z,1.65
2022-08-01T16:57:24.606Z,1.38
2022-08-01T16:59:51.199Z,1.50
2022-08-01T17:02:17.891Z,2.22
2022-08-01T17:04:44.534Z,1.48
2022-08-01T17:07:11.295Z,1.63
2022-08-01T17:09:43.023Z,1.73
2022-08-01T17:12:10.554Z,1.80
2022-08-01T17:14:39.680Z,3.00
2022-08-01T17:17:07.193Z,1.88
2022-08-01T17:19:34.102Z,2.30
2022-08-01T17:22:01.001Z,2.40
2022-08-01T17:24:27.606Z,1.60
2022-08-01T17:26:54.242Z,1.60
2022-08-01T17:29:20.912Z,1.60
2022-08-01T17:31:47.531Z,1.50
2022-08-01T17:34:14.140Z,1.80
2022-08-01T17:36:40.805Z,1.45
2022-08-01T17:39:08.649Z,1.50
2022-08-01T17:41:35.385Z,1.45
2022-08-01T17:44:01.967Z,1.88
2022-08-01T17:46:28.608Z,1.92
2022-08-01T17:48:55.363Z,1.75
2022-08-01T17:51:22.928Z,2.50
2022-08-01T17:53:56.259Z,1.73
2022-08-01T17:56:25.297Z,2.42
2022-08-01T17:58:52.364Z,2.33
2022-08-01T18:01:19.317Z,2.58
2022-08-01T18:03:46.060Z,1.75
2022-08-01T18:06:15.539Z,2.53
2022-08-01T18:08:42.774Z,1.90
2022-08-01T18:11:09.652Z,2.25
2022-08-01T18:13:36.572Z,2.22
2022-08-01T18:16:08.864Z,2.20
2022-08-01T18:18:35.574Z,1.63
2022-08-01T18:21:02.533Z,1.50
2022-08-01T18:23:29.135Z,1.60
2022-08-01T18:25:55.722Z,1.60
2022-08-01T18:28:32.330Z,1.95
2022-08-01T18:31:00.785Z,2.42
2022-08-01T18:33:27.418Z,2.65
2022-08-01T18:35:54.338Z,2.72
2022-08-01T18:38:24.212Z,2.35
2022-08-01T18:40:52.080Z,2.40
2022-08-01T18:43:18.659Z,3.25
2022-08-01T18:45:45.194Z,1.83
2022-08-01T18:48:11.964Z,1.55
2022-08-01T18:50:39.421Z,2.90
2022-08-01T18:53:06.297Z,2.72
2022-08-01T18:55:33.066Z,2.10
2022-08-01T18:57:59.731Z,2.60
2022-08-01T19:00:26.420Z,2.67
2022-08-01T19:02:53.890Z,3.28
2022-08-01T19:05:20.503Z,3.50
2022-08-01T19:08:05.955Z,2.40
2022-08-01T19:10:34.874Z,3.05
2022-08-01T19:13:02.180Z,2.70
2022-08-01T19:15:28.777Z,4.35
2022-08-01T19:17:55.399Z,3.05
2022-08-01T19:20:22.003Z,3.38
2022-08-01T19:22:48.596Z,3.15
2022-08-01T19:25:15.671Z,4.00
2022-08-01T19:27:49.663Z,3.65
2022-08-01T19:30:17.103Z,3.40
2022-08-01T19:32:44.283Z,3.70
2022-08-01T19:35:12.450Z,3.05
2022-08-01T19:37:43.968Z,3.85
2022-08-01T19:40:10.895Z,3.17
2022-08-01T19:42:54.677Z,3.45
2022-08-01T19:45:21.394Z,3.75
2022-08-01T19:47:56.216Z,3.28
2022-08-01T19:50:26.131Z,3.85
2022-08-01T19:52:52.803Z,4.10
2022-08-01T19:55:19.457Z,3.63
2022-08-01T19:57:59.266Z,3.83
2022-08-01T20:00:36.926Z,3.67
2022-08-01T20:03:03.741Z,3.17
2022-08-01T20:05:30.394Z,3.83
2022-08-01T20:07:57.452Z,3.90
2022-08-01T20:10:24.122Z,4.60
2022-08-01T20:12:51.040Z,3.45
2022-08-01T20:15:17.763Z,4.10
2022-08-01T20:17:45.437Z,3.13
2022-08-01T20:20:12.131Z,3.22
2022-08-01T20:22:38.700Z,2.53
2022-08-01T20:25:06.030Z,3.22
2022-08-01T20:27:32.650Z,2.90
2022-08-01T20:30:00.693Z,3.22
2022-08-01T20:32:30.823Z,2.88
2022-08-01T20:34:57.525Z,3.35
2022-08-01T20:38:05.991Z,3.15
2022-08-01T20:40:12.405Z,3.10
2022-08-01T20:42:39.252Z,3.13
2022-08-01T20:45:06.811Z,3.13
2022-08-01T20:47:33.467Z,3.20
2022-08-01T20:50:26.968Z,3.72
2022-08-01T20:53:06.866Z,4.10
2022-08-01T20:55:42.943Z,3.83
2022-08-01T20:58:10.058Z,3.90
2022-08-01T21:00:38.221Z,2.97
2022-08-01T21:03:08.859Z,2.92
2022-08-01T21:05:37.621Z,3.00
2022-08-01T21:08:24.105Z,5.55
2022-08-01T21:10:55.606Z,2.65
2022-08-01T21:13:41.186Z,3.13
2022-08-01T21:16:23.941Z,3.03
2022-08-01T21:21:45.197Z,2.90
2022-08-01T21:24:16.470Z,2.97
2022-08-01T21:26:43.669Z,3.08
2022-08-01T21:29:10.484Z,3.30
2022-08-01T21:31:40.854Z,2.80
2022-08-01T21:34:08.229Z,2.65
2022-08-01T21:36:35.684Z,3.50
2022-08-01T21:39:03.040Z,2.58
2022-08-01T21:42:04.654Z,2.75
2022-08-01T21:44:17.983Z,3.08
2022-08-01T21:46:44.661Z,3.20
2022-08-01T21:49:11.484Z,3.00
2022-08-01T21:54:40.937Z,3.55
2022-08-01T21:57:16.893Z,2.42
2022-08-01T21:59:53.250Z,2.88
2022-08-01T22:02:45.030Z,2.50
2022-08-01T22:05:12.881Z,2.33
2022-08-01T22:07:48.338Z,1.98
2022-08-01T22:10:17.356Z,2.70
2022-08-01T22:12:44.430Z,2.25
2022-08-01T22:15:11.778Z,2.10
2022-08-01T22:17:38.518Z,1.85
2022-08-01T22:20:06.100Z,2.13
2022-08-01T22:22:51.069Z,2.10
2022-08-01T22:25:19.652Z,2.30
2022-08-01T22:28:03.040Z,2.22
2022-08-01T22:30:33.123Z,1.90
2022-08-01T22:33:07.538Z,2.25
2022-08-01T22:35:45.536Z,1.52
2022-08-01T22:38:12.154Z,1.38
2022-08-01T22:40:40.264Z,1.70
2022-08-01T22:43:13.615Z,1.33
2022-08-01T22:45:45.493Z,1.70
2022-08-01T22:48:19.512Z,2.10
2022-08-01T22:50:50.024Z,1.63
2022-08-01T22:53:37.753Z,1.38
2022-08-01T22:56:06.815Z,1.38
2022-08-01T22:58:33.584Z,1.20
2022-08-01T23:01:01.435Z,1.90
2022-08-01T23:03:36.467Z,1.40
2022-08-01T23:06:04.740Z,1.52
2022-08-01T23:08:32.663Z,1.23
2022-08-01T23:11:02.653Z,1.17
2022-08-01T23:13:29.533Z,1.45
2022-08-01T23:15:57.733Z,1.45
2022-08-01T23:18:24.742Z,1.13
2022-08-01T23:20:52.664Z,1.10
2022-08-01T23:23:30.610Z,1.52
2022-08-01T23:25:58.328Z,1.95
2022-08-01T23:28:24.972Z,1.90
2022-08-01T23:30:51.637Z,1.63
2022-08-01T23:33:18.244Z,1.45
2022-08-01T23:35:45.027Z,1.70
2022-08-01T23:38:11.718Z,1.55
2022-08-01T23:40:38.392Z,1.42
2022-08-01T23:43:05.547Z,1.48
2022-08-01T23:46:02.048Z,1.73
2022-08-01T23:48:27.826Z,1.33
2022-08-01T23:50:54.497Z,1.83
2022-08-01T23:53:21.188Z,1.38
2022-08-01T23:55:47.800Z,1.23
2022-08-01T23:58:14.687Z,2.20
